createdAt,value
2016-12-12T00:00:18.316Z,74.56
2016-12-12T00:01:28.351Z,74.56
2016-12-12T00:02:38.707Z,74.46
2016-12-12T00:03:48.769Z,74.84
2016-12-12T00:04:58.478Z,74.65
2016-12-12T00:06:08.857Z,74.65
2016-12-12T00:07:18.882Z,75.13
2016-12-12T00:08:28.900Z,74.75
2016-12-12T00:09:38.922Z,74.65
2016-12-12T00:10:49.245Z,74.65
2016-12-12T00:11:59.599Z,74.65
2016-12-12T00:13:09.633Z,74.94
2016-12-12T00:14:19.963Z,74.65
2016-12-12T00:15:30.332Z,74.94
2016-12-12T00:16:40.684Z,74.65
2016-12-12T00:17:51.031Z,74.75
2016-12-12T00:19:01.359Z,74.84
2016-12-12T00:20:11.708Z,74.75
2016-12-12T00:21:22.054Z,74.75
2016-12-12T00:22:32.381Z,74.56
2016-12-12T00:23:42.750Z,74.65
2016-12-12T00:24:52.776Z,74.84
2016-12-12T00:26:02.487Z,74.65
2016-12-12T00:27:12.816Z,74.27
2016-12-12T00:28:23.166Z,74.18
2016-12-12T00:29:33.504Z,74.84
2016-12-12T00:30:43.519Z,74.46
2016-12-12T00:31:53.531Z,74.75
2016-12-12T00:33:03.242Z,74.65
2016-12-12T00:34:12.954Z,74.65
2016-12-12T00:35:22.973Z,74.56
2016-12-12T00:36:33.297Z,74.65
2016-12-12T00:37:43.018Z,74.75
2016-12-12T00:38:52.721Z,74.56
2016-12-12T00:40:02.756Z,74.75
2016-12-12T00:41:13.090Z,74.56
2016-12-12T00:42:22.798Z,74.56
2016-12-12T00:43:32.800Z,74.94
2016-12-12T00:44:42.815Z,74.75
2016-12-12T00:45:52.843Z,74.65
2016-12-12T00:47:02.553Z,74.75
2016-12-12T00:48:12.580Z,74.75
2016-12-12T00:49:22.291Z,74.84
2016-12-12T00:50:32.605Z,74.75
2016-12-12T00:51:42.635Z,74.84
2016-12-12T00:52:52.687Z,74.65
2016-12-12T00:54:02.726Z,74.75
2016-12-12T00:55:12.765Z,74.84
2016-12-12T00:56:22.803Z,74.65
2016-12-12T00:57:33.140Z,74.18
2016-12-12T00:58:42.876Z,74.84
2016-12-12T00:59:52.927Z,74.31
2016-12-12T01:01:02.946Z,75.07
2016-12-12T01:02:12.976Z,74.21
2016-12-12T01:03:23.307Z,74.12
2016-12-12T01:04:33.632Z,74.21
2016-12-12T01:05:43.986Z,74.75
2016-12-12T01:06:54.341Z,74.75
2016-12-12T01:08:04.049Z,74.84
2016-12-12T01:09:14.071Z,74.56
2016-12-12T01:10:24.395Z,74.84
2016-12-12T01:11:34.730Z,74.75
2016-12-12T01:12:45.046Z,74.46
2016-12-12T01:13:54.448Z,74.56
2016-12-12T01:15:04.462Z,74.65
2016-12-12T01:16:14.177Z,74.75
2016-12-12T01:17:23.884Z,74.75
2016-12-12T01:18:33.590Z,74.46
2016-12-12T01:19:43.607Z,74.6
2016-12-12T01:20:53.978Z,74.84
2016-12-12T01:22:04.299Z,74.65
2016-12-12T01:23:14.627Z,74.75
2016-12-12T01:24:24.957Z,75.04
2016-12-12T01:25:34.671Z,74.69
2016-12-12T01:26:44.698Z,74.69
2016-12-12T01:27:54.395Z,74.88
2016-12-12T01:29:04.733Z,74.31
2016-12-12T01:30:15.068Z,74.75
2016-12-12T01:31:25.435Z,74.84
2016-12-12T01:32:35.187Z,74.84
2016-12-12T01:33:45.517Z,74.94
2016-12-12T01:34:55.845Z,74.84
2016-12-12T01:36:05.562Z,74.65
2016-12-12T01:37:15.579Z,74.65
2016-12-12T01:38:25.597Z,74.69
2016-12-12T01:39:35.616Z,74.75
2016-12-12T01:40:45.636Z,74.75
2016-12-12T01:41:55.676Z,74.84
2016-12-12T01:43:05.688Z,74.65
2016-12-12T01:44:15.388Z,74.84
2016-12-12T01:45:25.095Z,74.84
2016-12-12T01:46:35.413Z,74.84
2016-12-12T01:47:45.734Z,74.84
2016-12-12T01:48:55.753Z,74.84
2016-12-12T01:50:05.786Z,74.84
2016-12-12T01:51:15.795Z,75.04
2016-12-12T01:52:26.136Z,74.75
2016-12-12T01:53:36.158Z,74.84
2016-12-12T01:54:46.552Z,74.84
2016-12-12T01:55:56.575Z,74.75
2016-12-12T01:57:06.903Z,74.84
2016-12-12T01:58:17.239Z,74.84
2016-12-12T01:59:26.948Z,74.94
2016-12-12T02:00:36.973Z,74.88
2016-12-12T02:01:46.999Z,74.84
2016-12-12T02:02:57.027Z,74.88
2016-12-12T02:04:07.049Z,74.84
2016-12-12T02:05:17.060Z,74.84
2016-12-12T02:06:27.397Z,74.75
2016-12-12T02:07:37.738Z,74.75
2016-12-12T02:08:47.751Z,74.88
2016-12-12T02:09:57.801Z,74.65
2016-12-12T02:11:08.133Z,74.88
2016-12-12T02:12:18.156Z,74.75
2016-12-12T02:13:28.517Z,74.84
2016-12-12T02:14:38.543Z,74.65
2016-12-12T02:15:48.560Z,74.84
2016-12-12T02:16:58.931Z,74.75
2016-12-12T02:18:08.952Z,74.84
2016-12-12T02:19:18.986Z,74.65
2016-12-12T02:20:29.323Z,74.94
2016-12-12T02:21:39.653Z,74.65
2016-12-12T02:22:50.000Z,74.65
2016-12-12T02:24:00.337Z,74.84
2016-12-12T02:25:10.047Z,74.84
2016-12-12T02:26:20.086Z,74.75
2016-12-12T02:27:30.423Z,74.84
2016-12-12T02:28:40.752Z,74.84
2016-12-12T02:29:50.762Z,74.75
2016-12-12T02:31:01.092Z,74.75
2016-12-12T02:32:11.113Z,74.84
2016-12-12T02:33:21.131Z,74.84
2016-12-12T02:34:30.828Z,74.37
2016-12-12T02:35:41.149Z,74.84
2016-12-12T02:36:51.480Z,74.75
2016-12-12T02:38:01.814Z,74.84
2016-12-12T02:39:11.843Z,74.94
2016-12-12T02:40:21.856Z,74.65
2016-12-12T02:41:31.592Z,74.84
2016-12-12T02:42:41.635Z,74.56
2016-12-12T02:43:51.661Z,74.65
2016-12-12T02:45:01.690Z,74.75
2016-12-12T02:46:11.709Z,74.65
2016-12-12T02:47:21.721Z,74.94
2016-12-12T02:48:32.079Z,74.84
2016-12-12T02:49:41.470Z,74.65
2016-12-12T02:50:51.486Z,74.84
2016-12-12T02:52:01.502Z,74.84
2016-12-12T02:53:10.889Z,74.94
2016-12-12T02:54:21.216Z,74.75
2016-12-12T02:55:31.539Z,74.75
2016-12-12T02:56:41.851Z,74.75
2016-12-12T02:57:52.184Z,74.84
2016-12-12T02:59:02.206Z,74.94
2016-12-12T03:00:12.231Z,74.75
2016-12-12T03:01:22.570Z,74.43
2016-12-12T03:33:16.949Z,71.71
2016-12-12T03:34:26.948Z,72.38
2016-12-12T03:35:36.638Z,73.14
2016-12-12T03:36:46.992Z,74.47
2016-12-12T03:37:57.309Z,74.85
2016-12-12T03:39:07.631Z,75.51
2016-12-12T03:40:17.654Z,75.7
2016-12-12T03:41:27.976Z,75.42
2016-12-12T03:42:38.287Z,76.12
2016-12-12T03:43:48.372Z,75.93
2016-12-12T03:44:58.124Z,75.93
2016-12-12T03:46:08.148Z,75.93
2016-12-12T03:47:18.498Z,76.16
2016-12-12T03:48:28.836Z,75.59
2016-12-12T03:49:39.193Z,75.3
2016-12-12T03:50:48.589Z,75.96
2016-12-12T03:51:58.306Z,75.78
2016-12-12T03:53:08.317Z,75.3
2016-12-12T03:54:18.644Z,75.21
2016-12-12T03:55:28.990Z,75.21
2016-12-12T03:56:39.001Z,74.87
2016-12-12T03:57:49.334Z,74.87
2016-12-12T03:58:59.670Z,75.05
2016-12-12T04:00:09.686Z,75.53
2016-12-12T04:01:19.702Z,74.96
2016-12-12T04:02:29.418Z,74.96
2016-12-12T04:03:39.757Z,74.96
2016-12-12T04:04:50.116Z,75.15
2016-12-12T04:05:59.884Z,74.87
2016-12-12T04:07:10.211Z,75.24
2016-12-12T04:08:19.903Z,74.67
2016-12-12T04:09:30.225Z,74.58
2016-12-12T04:10:40.567Z,74.48
2016-12-12T04:11:50.939Z,74.67
2016-12-12T04:13:00.650Z,74.58
2016-12-12T04:14:10.730Z,74.77
2016-12-12T04:15:21.127Z,74.67
2016-12-12T04:16:31.491Z,74.48
2016-12-12T04:17:41.800Z,74.58
2016-12-12T04:18:51.813Z,74.58
2016-12-12T04:20:01.529Z,74.58
2016-12-12T04:21:11.860Z,74.77
2016-12-12T04:22:21.254Z,74.48
2016-12-12T04:23:31.590Z,74.48
2016-12-12T04:24:41.921Z,74.48
2016-12-12T04:25:51.931Z,74.48
2016-12-12T04:27:01.994Z,74.67
2016-12-12T04:28:12.305Z,74.67
2016-12-12T04:29:22.625Z,74.67
2016-12-12T04:30:32.348Z,74.58
2016-12-12T04:31:42.360Z,74.58
2016-12-12T04:32:52.363Z,74.58
2016-12-12T04:34:02.714Z,74.43
2016-12-12T04:35:13.054Z,74.58
2016-12-12T04:36:23.381Z,74.39
2016-12-12T04:37:33.383Z,74.48
2016-12-12T04:38:43.716Z,74.77
2016-12-12T04:39:54.057Z,74.87
2016-12-12T04:41:04.392Z,74.87
2016-12-12T04:42:14.714Z,74.62
2016-12-12T04:43:24.792Z,74.14
2016-12-12T04:44:34.492Z,74.52
2016-12-12T04:45:44.824Z,74.77
2016-12-12T04:46:54.839Z,74.67
2016-12-12T04:48:05.171Z,74.58
2016-12-12T04:49:14.864Z,74.58
2016-12-12T04:50:25.230Z,74.67
2016-12-12T04:51:35.242Z,74.77
2016-12-12T04:52:45.259Z,74.67
2016-12-12T04:53:54.960Z,74.67
2016-12-12T04:55:05.321Z,74.58
2016-12-12T04:56:15.657Z,74.39
2016-12-12T04:57:25.990Z,74.77
2016-12-12T04:58:36.007Z,74.67
2016-12-12T04:59:46.028Z,74.67
2016-12-12T05:00:56.357Z,74.58
2016-12-12T05:02:06.386Z,74.48
2016-12-12T05:03:16.771Z,74.77
2016-12-12T05:04:27.178Z,74.52
2016-12-12T05:05:37.199Z,74.96
2016-12-12T05:06:47.522Z,74.58
2016-12-12T05:07:57.849Z,74.52
2016-12-12T05:09:07.866Z,74.2
2016-12-12T05:10:18.196Z,73.95
2016-12-12T05:11:28.515Z,73.95
2016-12-12T05:12:38.869Z,74.04
2016-12-12T05:13:48.924Z,74.24
2016-12-12T05:14:59.289Z,73.95
2016-12-12T05:16:09.602Z,74.24
2016-12-12T05:17:19.934Z,74.24
2016-12-12T05:18:30.260Z,74.71
2016-12-12T05:19:40.606Z,74.8
2016-12-12T05:20:50.975Z,74.8
2016-12-12T05:22:00.984Z,74.52
2016-12-12T05:23:11.311Z,74.9
2016-12-12T05:24:21.334Z,74.52
2016-12-12T05:25:31.664Z,74.52
2016-12-12T05:26:42.032Z,74.71
2016-12-12T05:27:52.048Z,74.8
2016-12-12T05:29:02.065Z,74.52
2016-12-12T05:30:12.073Z,74.71
2016-12-12T05:31:22.398Z,74.39
2016-12-12T05:32:32.112Z,74.71
2016-12-12T05:33:42.122Z,74.77
2016-12-12T05:34:52.178Z,74.87
2016-12-12T05:36:02.194Z,74.77
2016-12-12T05:37:12.525Z,74.77
2016-12-12T05:38:22.554Z,74.77
2016-12-12T05:39:32.887Z,74.58
2016-12-12T05:40:43.218Z,74.96
2016-12-12T05:41:53.549Z,74.77
2016-12-12T05:43:03.869Z,74.77
2016-12-12T05:44:13.893Z,74.77
2016-12-12T05:45:23.909Z,74.87
2016-12-12T05:46:33.941Z,74.58
2016-12-12T05:47:44.302Z,74.87
2016-12-12T05:48:54.649Z,74.77
2016-12-12T05:50:04.668Z,74.67
2016-12-12T05:51:14.998Z,74.39
2016-12-12T05:52:24.385Z,74.58
2016-12-12T05:53:34.712Z,74.1
2016-12-12T05:54:44.723Z,73.91
2016-12-12T05:55:54.429Z,73.95
2016-12-12T05:57:04.766Z,73.66
2016-12-12T05:58:15.114Z,74.14
2016-12-12T05:59:25.500Z,74.04
2016-12-12T06:00:35.828Z,73.85
2016-12-12T06:01:45.854Z,74.04
2016-12-12T06:02:55.862Z,73.95
2016-12-12T06:04:05.597Z,73.95
2016-12-12T06:05:15.619Z,73.76
2016-12-12T06:06:25.956Z,74.04
2016-12-12T06:07:36.007Z,73.95
2016-12-12T06:08:46.364Z,73.95
2016-12-12T06:09:56.691Z,73.66
2016-12-12T06:11:06.709Z,73.85
2016-12-12T06:12:16.414Z,73.66
2016-12-12T06:13:26.435Z,73.66
2016-12-12T06:14:36.782Z,74.14
2016-12-12T06:15:46.490Z,73.66
2016-12-12T06:16:56.897Z,74.04
2016-12-12T06:18:06.624Z,74.14
2016-12-12T06:19:16.954Z,73.66
2016-12-12T06:20:26.973Z,73.85
2016-12-12T06:21:37.298Z,73.95
2016-12-12T06:22:47.310Z,73.85
2016-12-12T06:23:57.332Z,73.76
2016-12-12T06:25:07.356Z,73.95
2016-12-12T06:26:17.377Z,73.85
2016-12-12T06:27:27.693Z,73.95
2016-12-12T06:28:38.020Z,74.14
2016-12-12T06:29:48.047Z,73.85
2016-12-12T06:30:58.067Z,73.95
2016-12-12T06:32:08.119Z,74.08
2016-12-12T06:33:18.442Z,73.89
2016-12-12T06:34:28.458Z,73.66
2016-12-12T06:35:38.469Z,73.95
2016-12-12T06:36:48.830Z,74.08
2016-12-12T06:37:59.162Z,73.66
2016-12-12T06:39:09.500Z,73.99
2016-12-12T06:40:19.831Z,74.14
2016-12-12T06:41:30.158Z,73.95
2016-12-12T06:42:39.868Z,74.14
2016-12-12T06:43:49.895Z,74.8
2016-12-12T06:45:00.229Z,74.14
2016-12-12T06:46:10.558Z,74.14
2016-12-12T06:47:20.896Z,75.04
2016-12-12T06:48:30.923Z,74.04
2016-12-12T06:49:41.289Z,74.14
2016-12-12T06:50:51.295Z,73.85
2016-12-12T06:52:00.997Z,73.76
2016-12-12T06:53:10.709Z,73.95
2016-12-12T06:54:21.041Z,73.99
2016-12-12T06:55:31.087Z,73.85
2016-12-12T06:56:41.118Z,74.18
2016-12-12T06:57:51.451Z,73.99
2016-12-12T06:59:01.787Z,73.8
2016-12-12T07:00:11.494Z,74.08
2016-12-12T07:01:21.187Z,73.99
2016-12-12T07:02:31.471Z,74.18
2016-12-12T07:03:41.814Z,74.08
2016-12-12T07:04:51.530Z,74.18
2016-12-12T07:06:01.563Z,74.18
2016-12-12T07:07:11.894Z,74.08
2016-12-12T07:08:22.235Z,73.8
2016-12-12T07:09:32.620Z,73.89
2016-12-12T07:10:42.567Z,74.27
2016-12-12T07:11:52.936Z,74.08
2016-12-12T07:13:02.963Z,74.18
2016-12-12T07:14:13.309Z,73.99
2016-12-12T07:15:23.642Z,74.08
2016-12-12T07:16:33.349Z,73.99
2016-12-12T07:17:43.682Z,73.8
2016-12-12T07:18:53.396Z,73.89
2016-12-12T07:20:03.738Z,73.89
2016-12-12T07:21:13.755Z,73.99
2016-12-12T07:22:24.087Z,74.08
2016-12-12T07:23:34.419Z,73.99
2016-12-12T07:24:44.760Z,73.8
2016-12-12T07:25:55.092Z,73.89
2016-12-12T07:27:05.122Z,74.08
2016-12-12T07:28:15.474Z,73.89
2016-12-12T07:29:25.797Z,74.08
2016-12-12T07:30:35.519Z,73.99
2016-12-12T07:31:45.541Z,74.18
2016-12-12T07:32:55.878Z,73.99
2016-12-12T07:34:05.885Z,73.99
2016-12-12T07:35:16.251Z,74.18
2016-12-12T07:36:26.573Z,74.18
2016-12-12T07:37:36.610Z,74.27
2016-12-12T07:38:46.636Z,73.99
2016-12-12T07:39:56.973Z,73.89
2016-12-12T07:41:06.990Z,73.89
2016-12-12T07:42:17.316Z,73.89
2016-12-12T07:43:27.328Z,73.99
2016-12-12T07:44:37.331Z,73.99
2016-12-12T07:45:47.373Z,74.18
2016-12-12T07:46:57.738Z,73.99
2016-12-12T07:48:08.066Z,73.89
2016-12-12T07:49:18.089Z,73.99
2016-12-12T07:50:28.469Z,73.99
2016-12-12T07:51:38.806Z,73.61
2016-12-12T07:52:48.547Z,74.18
2016-12-12T07:53:58.568Z,73.8
2016-12-12T07:55:08.907Z,73.8
2016-12-12T07:56:19.237Z,73.89
2016-12-12T07:57:29.275Z,73.8
2016-12-12T07:58:39.307Z,74.08
2016-12-12T07:59:49.323Z,73.61
2016-12-12T08:00:59.075Z,73.51
2016-12-12T08:02:09.420Z,73.55
2016-12-12T08:03:19.753Z,73.55
2016-12-12T08:04:29.780Z,73.55
2016-12-12T08:05:39.487Z,73.36
2016-12-12T08:06:49.853Z,73.55
2016-12-12T08:08:00.189Z,73.17
2016-12-12T08:09:10.221Z,73.07
2016-12-12T08:10:20.243Z,73.07
2016-12-12T08:11:29.949Z,72.88
2016-12-12T08:12:40.287Z,72.97
2016-12-12T08:13:50.669Z,72.88
2016-12-12T08:15:00.685Z,73.55
2016-12-12T08:16:11.016Z,73.55
2016-12-12T08:17:20.408Z,73.65
2016-12-12T08:18:30.737Z,73.83
2016-12-12T08:19:40.442Z,74.12
2016-12-12T08:20:50.780Z,73.74
2016-12-12T08:22:00.789Z,73.74
2016-12-12T08:23:10.495Z,73.99
2016-12-12T08:24:20.503Z,73.83
2016-12-12T08:25:29.955Z,73.83
2016-12-12T08:26:39.986Z,74.21
2016-12-12T08:27:49.703Z,74.12
2016-12-12T08:28:59.705Z,74.21
2016-12-12T08:30:09.713Z,73.93
2016-12-12T08:31:20.054Z,74.12
2016-12-12T08:32:30.066Z,73.74
2016-12-12T08:33:40.412Z,73.17
2016-12-12T08:34:50.744Z,72.21
2016-12-12T08:36:01.076Z,72.44
2016-12-12T08:37:11.412Z,73.01
2016-12-12T08:38:21.440Z,72.92
2016-12-12T08:39:31.761Z,73.21
2016-12-12T08:40:41.787Z,73.07
2016-12-12T08:41:52.144Z,73.83
2016-12-12T08:43:02.176Z,73.26
2016-12-12T08:44:12.197Z,73.55
2016-12-12T08:45:22.219Z,73.65
2016-12-12T08:46:32.551Z,72.97
2016-12-12T08:47:42.873Z,73.07
2016-12-12T08:48:53.205Z,73.17
2016-12-12T08:50:03.542Z,73.3
2016-12-12T08:51:13.878Z,73.65
2016-12-12T08:52:24.214Z,73.83
2016-12-12T08:53:34.229Z,73.74
2016-12-12T08:54:44.259Z,74.27
2016-12-12T08:55:54.652Z,74.75
2016-12-12T08:57:04.668Z,74.84
2016-12-12T08:58:14.687Z,74.65
2016-12-12T08:59:24.715Z,74.71
2016-12-12T09:00:35.046Z,74.14
2016-12-12T09:01:45.371Z,74.14
2016-12-12T09:02:55.397Z,73.66
2016-12-12T09:04:05.102Z,73.85
2016-12-12T09:05:15.118Z,73.95
2016-12-12T09:06:25.145Z,74.24
2016-12-12T09:07:35.172Z,74.04
2016-12-12T09:08:44.883Z,73.76
2016-12-12T09:09:54.897Z,74.04
2016-12-12T09:11:04.931Z,73.95
2016-12-12T09:12:15.015Z,73.76
2016-12-12T09:13:25.040Z,73.95
2016-12-12T09:14:35.047Z,73.76
2016-12-12T09:15:45.389Z,73.95
2016-12-12T09:16:55.412Z,73.57
2016-12-12T09:18:05.741Z,73.38
2016-12-12T09:19:16.070Z,73.1
2016-12-12T09:20:26.099Z,73.13
2016-12-12T09:21:36.436Z,73.13
2016-12-12T09:22:46.145Z,72.85
2016-12-12T09:23:56.475Z,73.13
2016-12-12T09:25:06.491Z,73.76
2016-12-12T09:26:16.505Z,73.76
2016-12-12T09:27:26.525Z,73.66
2016-12-12T09:28:36.863Z,74.04
2016-12-12T09:29:47.230Z,73.95
2016-12-12T09:30:57.250Z,73.95
2016-12-12T09:32:06.967Z,73.76
2016-12-12T09:33:16.983Z,73.95
2016-12-12T09:34:26.998Z,73.66
2016-12-12T09:35:37.066Z,73.85
2016-12-12T09:36:46.764Z,73.28
2016-12-12T09:37:56.776Z,73.66
2016-12-12T09:39:06.814Z,72.9
2016-12-12T09:40:16.833Z,72.81
2016-12-12T09:41:26.530Z,73.38
2016-12-12T09:42:36.852Z,73.47
2016-12-12T09:43:46.870Z,73.85
2016-12-12T09:44:57.199Z,73.76
2016-12-12T09:46:07.217Z,73.85
2016-12-12T09:47:17.247Z,73.76
2016-12-12T09:48:27.261Z,73.57
2016-12-12T09:49:37.592Z,73.66
2016-12-12T09:50:47.932Z,73.47
2016-12-12T09:51:58.310Z,73.47
2016-12-12T09:53:08.397Z,73.19
2016-12-12T09:54:18.409Z,73.1
2016-12-12T09:55:28.415Z,73.13
2016-12-12T09:56:38.118Z,73.28
2016-12-12T09:57:48.134Z,73.32
2016-12-12T09:58:58.486Z,73.32
2016-12-12T10:00:08.813Z,73.32
2016-12-12T10:01:18.520Z,72.85
2016-12-12T10:02:28.841Z,73.03
2016-12-12T10:03:38.576Z,73.41
2016-12-12T10:04:48.289Z,72.94
2016-12-12T10:05:58.303Z,72.75
2016-12-12T10:07:08.628Z,72.94
2016-12-12T10:08:18.644Z,73.22
2016-12-12T10:09:28.981Z,72.85
2016-12-12T10:10:39.008Z,73.13
2016-12-12T10:11:49.029Z,73.07
2016-12-12T10:12:59.383Z,73.07
2016-12-12T10:14:09.728Z,73.36
2016-12-12T10:15:20.069Z,72.69
2016-12-12T10:16:30.141Z,72.97
2016-12-12T10:17:40.158Z,72.88
2016-12-12T10:18:50.188Z,73.21
2016-12-12T10:20:00.211Z,73.07
2016-12-12T10:21:10.228Z,72.97
2016-12-12T10:22:20.239Z,72.72
2016-12-12T10:23:30.276Z,72.72
2016-12-12T10:24:39.979Z,72.92
2016-12-12T10:25:50.310Z,73.3
2016-12-12T10:27:00.641Z,73.21
2016-12-12T10:28:10.347Z,73.01
2016-12-12T10:29:19.750Z,73.01
2016-12-12T10:30:29.778Z,73.21
2016-12-12T10:31:40.110Z,73.58
2016-12-12T10:32:50.147Z,73.55
2016-12-12T10:34:00.162Z,73.3
2016-12-12T10:35:10.188Z,73.21
2016-12-12T10:36:20.511Z,72.63
2016-12-12T10:37:30.836Z,72.72
2016-12-12T10:38:40.850Z,72.72
2016-12-12T10:39:50.876Z,72.92
2016-12-12T10:41:00.902Z,72.72
2016-12-12T10:42:10.934Z,73.39
2016-12-12T10:43:20.644Z,73.01
2016-12-12T10:44:30.982Z,73.21
2016-12-12T10:45:41.323Z,73.39
2016-12-12T10:46:51.045Z,73.21
2016-12-12T10:48:01.068Z,73.49
2016-12-12T10:49:11.401Z,73.68
2016-12-12T10:50:21.732Z,73.68
2016-12-12T10:51:32.051Z,73.68
2016-12-12T10:52:42.064Z,73.68
2016-12-12T10:53:52.396Z,72.82
2016-12-12T10:55:02.741Z,72.92
2016-12-12T10:56:12.780Z,73.39
2016-12-12T10:57:23.027Z,72.86
2016-12-12T10:58:33.058Z,73.43
2016-12-12T10:59:42.764Z,73.43
2016-12-12T11:00:52.470Z,72.76
2016-12-12T11:02:02.821Z,73.05
2016-12-12T11:03:12.861Z,73.05
2016-12-12T11:04:23.200Z,72.48
2016-12-12T11:05:32.914Z,72.57
2016-12-12T11:06:42.614Z,72.67
2016-12-12T11:07:52.323Z,72.57
2016-12-12T11:09:02.329Z,72.67
2016-12-12T11:10:12.349Z,73.24
2016-12-12T11:11:22.366Z,73.33
2016-12-12T11:12:32.707Z,72.96
2016-12-12T11:13:43.051Z,72.86
2016-12-12T11:14:53.061Z,73.14
2016-12-12T11:16:03.087Z,72.96
2016-12-12T11:17:13.424Z,73.05
2016-12-12T11:18:23.756Z,73.05
2016-12-12T11:19:34.083Z,72.76
2016-12-12T11:20:43.784Z,73.05
2016-12-12T11:21:54.128Z,72.48
2016-12-12T11:23:04.150Z,72.99
2016-12-12T11:24:13.895Z,72.89
2016-12-12T11:25:23.930Z,72.99
2016-12-12T11:26:48.523Z,73.33
2016-12-12T11:27:58.555Z,72.48
2016-12-12T11:29:07.961Z,72.8
2016-12-12T11:30:18.309Z,73.33
2016-12-12T11:31:28.354Z,73.05
2016-12-12T11:32:38.701Z,72.86
2016-12-12T11:33:49.083Z,73.05
2016-12-12T11:34:59.119Z,73.24
2016-12-12T11:36:09.453Z,73.43
2016-12-12T11:37:19.472Z,73.52
2016-12-12T11:38:29.815Z,73.81
2016-12-12T11:39:39.831Z,73.91
2016-12-12T11:40:50.162Z,74.19
2016-12-12T11:42:00.505Z,74.29
2016-12-12T11:43:10.836Z,74.19
2016-12-12T11:44:21.158Z,74.16
2016-12-12T11:45:31.487Z,73.72
2016-12-12T11:46:41.506Z,74.01
2016-12-12T11:47:51.204Z,74.29
2016-12-12T11:49:01.558Z,73.81
2016-12-12T11:50:11.587Z,73.43
2016-12-12T11:51:21.924Z,73.62
2016-12-12T11:52:31.961Z,73.72
2016-12-12T11:53:41.975Z,73.43
2016-12-12T11:54:51.993Z,73.62
2016-12-12T11:56:02.338Z,73.43
2016-12-12T11:57:12.686Z,74.19
2016-12-12T11:58:22.711Z,74.01
2016-12-12T11:59:33.041Z,74.1
2016-12-12T12:00:43.419Z,73.87
2016-12-12T12:01:53.753Z,74.16
2016-12-12T12:03:03.778Z,73.87
2016-12-12T12:04:13.804Z,74.06
2016-12-12T12:05:24.148Z,73.87
2016-12-12T12:06:34.166Z,73.96
2016-12-12T12:07:44.531Z,74.06
2016-12-12T12:08:54.549Z,74.16
2016-12-12T12:10:04.576Z,73.87
2016-12-12T12:11:14.607Z,73.77
2016-12-12T12:12:24.947Z,74.16
2016-12-12T12:13:35.276Z,73.72
2016-12-12T12:14:44.994Z,73.43
2016-12-12T12:15:55.314Z,73.52
2016-12-12T12:17:05.374Z,73.72
2016-12-12T12:18:15.117Z,73.43
2016-12-12T12:19:25.465Z,73.62
2016-12-12T12:20:35.804Z,73.62
2016-12-12T12:21:46.173Z,73.52
2016-12-12T12:22:56.553Z,72.96
2016-12-12T12:24:05.940Z,73.05
2016-12-12T12:25:15.988Z,73.24
2016-12-12T12:26:26.304Z,72.96
2016-12-12T12:27:36.640Z,72.99
2016-12-12T12:28:46.662Z,72.71
2016-12-12T12:29:56.703Z,72.89
2016-12-12T12:31:06.721Z,72.99
2016-12-12T12:32:17.061Z,73.08
2016-12-12T12:33:27.407Z,73.08
2016-12-12T12:34:37.755Z,73.28
2016-12-12T12:35:48.102Z,72.89
2016-12-12T12:36:58.430Z,72.51
2016-12-12T12:38:08.153Z,72.99
2016-12-12T12:39:18.485Z,73.08
2016-12-12T12:40:28.497Z,72.89
2016-12-12T12:41:38.820Z,73.08
2016-12-12T12:42:48.830Z,73.08
2016-12-12T12:43:58.853Z,73.66
2016-12-12T12:45:08.879Z,74.23
2016-12-12T12:46:18.596Z,74.13
2016-12-12T12:47:28.929Z,73.75
2016-12-12T12:48:38.945Z,73.08
2016-12-12T12:49:48.971Z,73.47
2016-12-12T12:50:59.326Z,72.89
2016-12-12T12:52:09.384Z,72.8
2016-12-12T12:53:19.481Z,73.37
2016-12-12T12:54:29.498Z,73.18
2016-12-12T12:55:39.525Z,73.08
2016-12-12T12:56:49.562Z,73.75
2016-12-12T12:57:59.902Z,73.08
2016-12-12T12:59:09.305Z,73.28
2016-12-12T13:00:19.651Z,72.99
2016-12-12T13:01:29.359Z,72.99
2016-12-12T13:02:39.689Z,73.47
2016-12-12T13:03:50.016Z,73.47
2016-12-12T13:05:00.042Z,73.47
2016-12-12T13:06:10.374Z,72.99
2016-12-12T13:07:20.406Z,72.61
2016-12-12T13:08:30.448Z,72.61
2016-12-12T13:09:40.160Z,72.99
2016-12-12T13:10:50.537Z,72.89
2016-12-12T13:12:00.882Z,72.99
2016-12-12T13:13:10.596Z,72.71
2016-12-12T13:14:20.921Z,73.28
2016-12-12T13:15:31.259Z,72.89
2016-12-12T13:16:41.603Z,72.89
2016-12-12T13:17:51.931Z,73.66
2016-12-12T13:19:01.967Z,73.66
2016-12-12T13:20:12.013Z,73.72
2016-12-12T13:21:22.031Z,73.43
2016-12-12T13:22:32.381Z,73.66
2016-12-12T13:23:42.720Z,72.61
2016-12-12T13:24:52.126Z,73.37
2016-12-12T13:26:02.164Z,72.89
2016-12-12T13:27:12.498Z,72.89
2016-12-12T13:28:22.816Z,72.51
2016-12-12T13:29:33.144Z,73.47
2016-12-12T13:30:43.189Z,72.8
2016-12-12T13:31:53.225Z,73.08
2016-12-12T13:33:03.242Z,73.12
2016-12-12T13:34:13.260Z,72.64
2016-12-12T13:35:23.598Z,72.36
2016-12-12T13:36:33.634Z,72.11
2016-12-12T13:37:43.659Z,72.3
2016-12-12T13:38:54.001Z,72.3
2016-12-12T13:40:04.337Z,72.49
2016-12-12T13:41:14.356Z,72.3
2016-12-12T13:42:24.367Z,73.07
2016-12-12T13:43:34.720Z,72.97
2016-12-12T13:44:45.059Z,73.07
2016-12-12T13:45:55.067Z,73.03
2016-12-12T13:47:05.403Z,73.12
2016-12-12T13:48:15.431Z,73.12
2016-12-12T13:49:25.466Z,73.5
2016-12-12T13:50:35.173Z,73.22
2016-12-12T13:51:45.531Z,73.5
2016-12-12T13:52:55.300Z,73.41
2016-12-12T13:54:05.639Z,73.32
2016-12-12T13:55:15.667Z,73.5
2016-12-12T13:56:26.011Z,73.75
2016-12-12T13:57:35.718Z,74.23
2016-12-12T13:58:45.424Z,74.13
2016-12-12T13:59:55.772Z,74.32
2016-12-12T14:01:05.473Z,74.04
2016-12-12T14:02:15.525Z,74.23
2016-12-12T14:03:25.601Z,74.9
2016-12-12T14:04:36.410Z,74.86
2016-12-12T14:05:47.494Z,74.48
2016-12-12T14:06:57.936Z,74.48
2016-12-12T14:08:08.399Z,74.57
2016-12-12T14:09:17.915Z,74.67
2016-12-12T14:10:28.308Z,75.05
2016-12-12T14:11:38.343Z,75.24
2016-12-12T14:12:48.821Z,74.38
2016-12-12T14:13:59.287Z,74.1
2016-12-12T14:15:09.860Z,74.73
2016-12-12T14:16:20.232Z,74.63
2016-12-12T14:17:30.287Z,74.92
2016-12-12T14:18:40.681Z,74.92
2016-12-12T14:19:51.030Z,74.92
2016-12-12T14:21:01.068Z,74.73
2016-12-12T14:22:11.151Z,74.73
2016-12-12T14:23:21.504Z,74.73
2016-12-12T14:24:31.842Z,74.54
2016-12-12T14:25:41.975Z,74.92
2016-12-12T14:26:52.336Z,74.16
2016-12-12T14:28:02.682Z,74.06
2016-12-12T14:29:12.756Z,74.63
2016-12-12T14:30:23.096Z,74.92
2016-12-12T14:31:33.206Z,74.92
2016-12-12T14:32:42.951Z,74.69
2016-12-12T14:33:52.987Z,74.6
2016-12-12T14:35:03.436Z,74.79
2016-12-12T14:36:13.509Z,74.63
2016-12-12T14:37:23.646Z,74.79
2016-12-12T14:38:34.025Z,74.69
2016-12-12T14:39:44.064Z,74.6
2016-12-12T14:40:53.782Z,74.79
2016-12-12T14:42:03.851Z,74.79
2016-12-12T14:43:13.899Z,74.98
2016-12-12T14:44:23.616Z,74.69
2016-12-12T14:45:33.633Z,74.88
2016-12-12T14:46:43.994Z,74.88
2016-12-12T14:47:54.016Z,74.69
2016-12-12T14:49:04.362Z,74.88
2016-12-12T14:50:14.448Z,74.6
2016-12-12T14:51:24.495Z,74.79
2016-12-12T14:52:34.914Z,74.6
2016-12-12T14:53:45.257Z,74.94
2016-12-12T14:54:55.513Z,75.32
2016-12-12T14:56:05.892Z,74.94
2016-12-12T14:57:15.909Z,74.94
2016-12-12T14:58:25.946Z,74.94
2016-12-12T14:59:36.037Z,75.04
2016-12-12T15:00:46.373Z,75.23
2016-12-12T15:01:56.423Z,75.23
2016-12-12T15:03:06.515Z,75.13
2016-12-12T15:04:16.879Z,75.23
2016-12-12T15:05:26.596Z,74.94
2016-12-12T15:06:36.931Z,74.94
2016-12-12T15:07:47.278Z,75.23
2016-12-12T15:08:57.616Z,74.94
2016-12-12T15:10:07.651Z,74.46
2016-12-12T15:11:17.368Z,74.56
2016-12-12T15:12:27.399Z,74.65
2016-12-12T15:13:37.520Z,74.8
2016-12-12T15:14:47.868Z,74.84
2016-12-12T15:15:58.249Z,74.84
2016-12-12T15:17:08.278Z,74.84
2016-12-12T15:18:18.019Z,74.84
2016-12-12T15:19:28.090Z,74.71
2016-12-12T15:20:38.180Z,74.94
2016-12-12T15:21:48.543Z,74.56
2016-12-12T15:22:58.885Z,74.71
2016-12-12T15:24:09.221Z,74.65
2016-12-12T15:25:19.259Z,74.75
2016-12-12T15:26:29.619Z,74.46
2016-12-12T15:27:39.961Z,74.56
2016-12-12T15:28:50.285Z,74.46
2016-12-12T15:30:00.627Z,74.56
2016-12-12T15:31:10.959Z,74.18
2016-12-12T15:32:21.293Z,73.99
2016-12-12T15:33:31.625Z,74.08
2016-12-12T15:34:41.659Z,74.08
2016-12-12T15:35:52.003Z,73.8